Time;durP1;ratioP1;P1;durP2;ratioP2;P2;SDS_P1;SDS_P2;PMS_P1;PMS_P2;Temp;Humidity;BMP_temperature;BMP_pressure;BME280_temperature;BME280_humidity;BME280_pressure;Samples;Min_cycle;Max_cycle;Signal;HPM_P1;HPM_P2
2022/02/22 00:00:14;;;;;;;23.33;4.15;;;6.10;99.90;;;7.12;89.21;100368.78;5075878;28;20031;-77
2022/02/22 00:02:45;;;;;;;24.63;4.88;;;6.20;99.90;;;7.15;90.53;100365.31;5073978;28;20048;-77
2022/02/22 00:05:13;;;;;;;31.35;4.82;;;6.20;99.90;;;7.13;90.88;100367.59;5074938;28;20100;-76
2022/02/22 00:07:41;;;;;;;30.20;5.03;;;6.10;99.90;;;7.19;91.32;100369.00;5075293;28;20024;-75
2022/02/22 00:10:11;;;;;;;22.88;5.65;;;6.10;99.90;;;7.20;92.03;100369.84;5075259;28;20016;-74
2022/02/22 00:12:38;;;;;;;28.00;5.45;;;6.20;99.90;;;7.04;93.07;100369.66;5075055;28;20081;-76
2022/02/22 00:15:05;;;;;;;27.10;4.47;;;6.10;99.90;;;7.13;92.46;100377.91;5075524;28;20287;-77
2022/02/22 00:17:33;;;;;;;23.75;5.20;;;6.10;99.90;;;7.19;93.54;100396.78;5074792;28;20490;-76
2022/02/22 00:20:09;;;;;;;24.65;5.65;;;6.20;99.90;;;6.92;98.86;100388.25;5057322;28;20066;-75
2022/02/22 00:22:37;;;;;;;23.50;4.57;;;6.20;99.90;;;6.73;100.00;100391.50;5076332;28;20487;-77
2022/02/22 00:25:05;;;;;;;30.80;4.95;;;5.90;99.90;;;6.70;100.00;100400.50;5075210;28;20478;-77
2022/02/22 00:27:34;;;;;;;23.15;4.93;;;5.70;99.90;;;6.56;100.00;100411.88;5074853;28;20052;-77
2022/02/22 00:30:00;;;;;;;28.77;4.85;;;5.60;99.90;;;6.52;100.00;100405.34;5074299;28;20512;-75
2022/02/22 00:32:26;;;;;;;27.13;5.20;;;5.50;99.90;;;6.38;100.00;100424.22;5075218;28;20036;-77
2022/02/22 00:34:52;;;;;;;26.17;4.97;;;5.50;99.90;;;6.40;100.00;100421.91;5075472;28;20039;-77
2022/02/22 00:37:18;;;;;;;22.42;3.75;;;5.50;99.90;;;6.41;100.00;100428.28;5079433;28;20055;-75
2022/02/22 00:39:43;;;;;;;30.08;5.43;;;5.50;99.90;;;6.42;100.00;100433.50;5056820;28;20081;-77
2022/02/22 00:42:09;;;;;;;27.00;4.78;;;5.50;99.90;;;6.31;100.00;100441.41;5056767;28;20044;-77
2022/02/22 00:44:35;;;;;;;32.15;4.78;;;5.40;99.90;;;6.36;100.00;100454.25;5056892;28;20082;-76
2022/02/22 00:47:04;;;;;;;28.00;5.35;;;5.40;99.90;;;6.38;100.00;100449.19;5073504;28;20380;-77
2022/02/22 00:49:30;;;;;;;33.05;6.13;;;5.40;99.90;;;6.32;100.00;100459.66;5068719;28;20104;-77
2022/02/22 00:51:56;;;;;;;32.55;5.25;;;5.40;99.90;;;6.35;100.00;100463.75;5036982;28;20056;-77
2022/02/22 00:54:25;;;;;;;27.33;4.93;;;5.40;99.90;;;6.34;100.00;100467.66;5055003;28;20052;-75
2022/02/22 00:56:51;;;;;;;23.58;4.35;;;5.40;99.90;;;6.30;100.00;100464.72;5055232;28;20078;-76
2022/02/22 00:59:17;;;;;;;33.08;5.05;;;5.40;99.90;;;6.36;100.00;100476.44;5037734;28;20024;-75
2022/02/22 01:01:42;;;;;;;27.25;5.43;;;5.40;99.90;;;6.31;100.00;100469.13;5054708;28;20032;-77
2022/02/22 01:04:09;;;;;;;29.40;5.00;;;5.40;99.90;;;6.36;100.00;100471.72;5054693;28;20029;-76
2022/02/22 01:06:35;;;;;;;27.02;4.43;;;5.40;99.90;;;6.41;100.00;100478.22;5054897;28;20065;-74
2022/02/22 01:09:06;;;;;;;32.50;4.53;;;5.40;99.90;;;6.36;100.00;100493.06;5054808;28;20090;-74
2022/02/22 01:11:33;;;;;;;28.35;4.45;;;5.40;99.90;;;6.39;100.00;100486.06;5037129;28;20066;-75
2022/02/22 01:13:59;;;;;;;27.77;4.18;;;5.40;99.90;;;6.30;100.00;100477.78;5036585;28;20162;-77
2022/02/22 01:16:25;;;;;;;22.75;4.22;;;5.40;99.90;;;6.26;100.00;100485.94;5055000;28;20492;-77
2022/02/22 01:18:51;;;;;;;25.88;4.55;;;5.40;99.90;;;6.24;98.78;100490.22;5036621;28;20036;-77
2022/02/22 01:21:17;;;;;;;30.40;4.47;;;5.40;99.90;;;6.21;97.66;100491.69;5054466;28;20036;-77
2022/02/22 01:23:43;;;;;;;23.92;4.15;;;5.40;99.90;;;6.26;97.68;100497.03;5054332;28;20033;-75
2022/02/22 01:26:15;;;;;;;27.98;5.03;;;5.40;99.90;;;6.17;97.40;100501.81;5036969;28;20112;-77
2022/02/22 01:28:41;;;;;;;20.85;4.32;;;5.30;99.90;;;6.22;96.77;100511.94;5053880;28;20036;-76
2022/02/22 01:31:07;;;;;;;20.05;4.60;;;5.40;99.90;;;6.29;97.11;100503.91;5054683;28;20033;-77
2022/02/22 01:33:33;;;;;;;21.02;4.10;;;5.40;99.90;;;6.18;96.99;100497.09;5054557;28;20033;-74
2022/02/22 01:35:58;;;;;;;21.55;3.55;;;5.20;99.90;;;6.13;97.10;100503.63;5036677;28;20029;-77
2022/02/22 01:38:27;;;;;;;25.58;4.95;;;5.10;99.90;;;6.00;96.54;100496.34;5053521;28;20032;-76
2022/02/22 01:40:56;;;;;;;22.52;3.97;;;5.20;99.90;;;6.11;97.04;100507.88;5054237;28;20025;-77
2022/02/22 01:43:25;;;;;;;22.52;3.55;;;5.20;99.90;;;6.07;96.49;100516.03;5055751;28;20033;-77
2022/02/22 01:45:50;;;;;;;21.48;3.28;;;5.10;99.90;;;6.01;96.97;100525.69;5053285;28;20048;-75
2022/02/22 01:48:17;;;;;;;18.50;3.10;;;5.10;99.90;;;6.03;96.89;100530.91;5035172;28;20029;-75
2022/02/22 01:50:43;;;;;;;17.92;3.05;;;5.10;99.90;;;6.02;97.55;100534.81;5069983;28;20082;-75
2022/02/22 01:53:09;;;;;;;32.70;5.38;;;5.10;99.90;;;6.01;97.92;100536.78;5073635;28;20076;-77
2022/02/22 01:55:37;;;;;;;23.55;4.07;;;5.00;99.90;;;5.98;99.07;100528.31;5073096;28;20083;-75
2022/02/22 01:58:07;;;;;;;26.73;4.55;;;5.00;99.90;;;5.96;99.48;100539.72;5072720;28;20562;-77
2022/02/22 02:00:33;;;;;;;25.75;4.65;;;5.00;99.90;;;5.93;100.00;100540.41;5073170;28;20062;-75
2022/02/22 02:03:00;;;;;;;24.55;4.30;;;5.00;99.90;;;5.94;100.00;100542.00;5071383;28;20036;-77
2022/02/22 02:05:26;;;;;;;22.67;4.43;;;5.00;99.90;;;5.92;100.00;100549.84;5054880;28;20056;-76
2022/02/22 02:07:53;;;;;;;27.38;4.53;;;5.00;99.90;;;5.83;100.00;100555.38;5071638;28;20116;-75
2022/02/22 02:10:22;;;;;;;21.10;4.43;;;4.90;99.90;;;5.80;100.00;100547.72;5072934;28;20077;-75
2022/02/22 02:12:51;;;;;;;24.50;4.28;;;4.80;99.90;;;5.80;100.00;100556.03;5071220;28;20032;-76
2022/02/22 02:15:20;;;;;;;23.70;4.88;;;4.80;99.90;;;5.74;100.00;100562.91;5072144;28;20059;-77
2022/02/22 02:17:48;;;;;;;29.30;4.32;;;4.80;99.90;;;5.71;100.00;100571.06;5072706;28;20028;-76
2022/02/22 02:20:14;;;;;;;29.20;5.00;;;4.70;99.90;;;5.67;100.00;100572.84;5072878;28;20052;-77
2022/02/22 02:22:43;;;;;;;29.88;5.63;;;4.70;99.90;;;5.71;100.00;100577.41;5073334;28;20068;-77
2022/02/22 02:25:12;;;;;;;27.05;5.10;;;4.70;99.90;;;5.60;100.00;100570.56;5071571;28;20052;-77
2022/02/22 02:27:38;;;;;;;30.50;4.55;;;4.60;99.90;;;5.64;100.00;100571.53;5072572;28;20036;-76
2022/02/22 02:30:08;;;;;;;21.75;4.70;;;4.60;99.90;;;5.64;100.00;100566.00;5072556;28;20123;-77
2022/02/22 02:32:34;;;;;;;33.75;5.35;;;4.60;99.90;;;5.57;100.00;100574.00;5054706;28;20032;-76
2022/02/22 02:35:10;;;;;;;28.40;5.47;;;4.50;99.90;;;5.53;100.00;100575.78;5073708;28;20119;-75
2022/02/22 02:37:38;;;;;;;35.13;6.30;;;4.50;99.90;;;5.54;100.00;100568.28;5054600;28;20124;-77
2022/02/22 02:40:09;;;;;;;33.28;5.15;;;4.50;99.90;;;5.54;100.00;100576.59;5073334;28;20404;-77
2022/02/22 02:42:42;;;;;;;31.65;5.15;;;4.50;99.90;;;5.60;100.00;100566.97;5073386;28;20035;-75
2022/02/22 02:45:11;;;;;;;41.70;6.95;;;4.50;99.90;;;5.61;100.00;100574.97;5072921;28;20029;-77
2022/02/22 02:47:37;;;;;;;32.50;6.55;;;4.50;99.90;;;5.61;100.00;100582.47;5072956;28;20060;-78
2022/02/22 02:50:09;;;;;;;38.38;6.22;;;4.50;99.90;;;5.73;100.00;100579.84;5060888;28;20033;-77
2022/02/22 02:52:35;;;;;;;40.20;6.07;;;4.60;99.90;;;5.90;100.00;100588.19;5052710;28;20025;-77
2022/02/22 02:55:03;;;;;;;32.95;6.25;;;4.80;99.90;;;5.87;100.00;100580.53;5034815;28;20078;-77
2022/02/22 02:57:32;;;;;;;34.75;6.43;;;4.80;99.90;;;5.87;100.00;100582.47;5052435;28;20380;-78
2022/02/22 03:00:22;;;;;;;24.30;5.15;;;4.90;99.90;;;5.84;100.00;100587.47;5052362;28;20036;-75
2022/02/22 03:02:48;;;;;;;25.52;5.50;;;4.90;99.90;;;5.76;100.00;100571.69;5052140;28;20570;-77
2022/02/22 03:05:14;;;;;;;27.13;4.57;;;4.90;99.90;;;5.73;100.00;100566.00;5034612;28;20024;-77
2022/02/22 03:07:40;;;;;;;32.38;4.22;;;4.80;99.90;;;5.68;100.00;100580.03;5034771;28;20051;-76
2022/02/22 03:10:07;;;;;;;32.53;5.80;;;4.70;99.90;;;5.62;100.00;100567.47;5052268;28;20063;-77
2022/02/22 03:12:36;;;;;;;20.38;4.22;;;4.70;99.90;;;5.61;100.00;100576.94;5051838;28;20033;-77
2022/02/22 03:15:02;;;;;;;25.77;5.07;;;4.60;99.90;;;5.68;100.00;100585.56;5052733;28;20063;-75
2022/02/22 03:17:35;;;;;;;39.95;4.78;;;4.60;99.90;;;5.72;100.00;100592.88;5051645;28;20033;-77
2022/02/22 03:20:08;;;;;;;23.60;4.53;;;4.70;99.90;;;5.73;100.00;100585.38;5034649;28;20039;-77
2022/02/22 03:22:36;;;;;;;34.05;5.10;;;4.60;99.90;;;5.66;100.00;100577.56;5052309;28;20037;-76
2022/02/22 03:25:05;;;;;;;25.38;4.55;;;4.60;99.90;;;5.67;100.00;100583.94;5052204;28;20036;-75
2022/02/22 03:27:31;;;;;;;30.67;6.03;;;4.60;99.90;;;5.74;100.00;100609.19;5053054;28;20031;-75
2022/02/22 03:29:57;;;;;;;35.58;7.25;;;4.70;99.90;;;5.78;100.00;100605.44;5057324;28;20025;-77
2022/02/22 03:32:23;;;;;;;31.08;4.97;;;4.80;99.90;;;5.84;100.00;100606.09;5043764;28;20047;-76
2022/02/22 03:34:48;;;;;;;34.60;5.90;;;4.70;99.90;;;5.86;100.00;100603.00;5076696;28;20045;-76
2022/02/22 03:37:14;;;;;;;35.75;5.45;;;4.70;99.90;;;5.85;100.00;100610.47;5058402;28;20037;-75
2022/02/22 03:39:40;;;;;;;33.20;5.10;;;4.70;99.90;;;5.75;100.00;100599.72;5064994;28;20052;-77
2022/02/22 03:42:06;;;;;;;25.65;5.38;;;4.60;99.90;;;5.68;100.00;100604.97;5039313;28;20032;-76
2022/02/22 03:44:32;;;;;;;33.67;6.78;;;4.60;99.90;;;5.63;100.00;100605.94;5056867;28;20021;-77
2022/02/22 03:46:58;;;;;;;36.05;6.28;;;4.50;99.90;;;5.53;100.00;100599.88;5056878;28;20036;-77
2022/02/22 03:49:23;;;;;;;30.90;5.97;;;4.50;99.90;;;5.57;100.00;100604.47;5056367;28;20044;-77
2022/02/22 03:51:49;;;;;;;40.28;5.65;;;4.50;99.90;;;5.48;100.00;100594.53;5038903;28;20029;-75
2022/02/22 03:54:15;;;;;;;34.45;6.38;;;4.40;99.90;;;5.31;100.00;100610.00;5057042;28;20511;-78
2022/02/22 03:56:41;;;;;;;35.00;5.65;;;4.30;99.90;;;5.16;100.00;100620.72;5056563;28;20036;-76
2022/02/22 03:59:07;;;;;;;42.97;7.00;;;4.20;99.90;;;5.22;100.00;100617.47;5055079;28;20033;-77
2022/02/22 04:01:33;;;;;;;39.35;6.18;;;4.20;99.90;;;5.31;100.00;100614.72;5056336;28;20086;-77
2022/02/22 04:03:58;;;;;;;36.50;6.82;;;4.20;99.90;;;5.33;100.00;100623.50;5038098;28;20037;-77
2022/02/22 04:06:24;;;;;;;40.53;6.40;;;4.20;99.90;;;5.36;100.00;100628.41;5037979;28;20116;-78
2022/02/22 04:08:56;;;;;;;35.28;6.90;;;4.20;99.90;;;5.32;100.00;100630.19;5038127;28;20404;-77
2022/02/22 04:11:23;;;;;;;30.42;6.70;;;4.20;99.90;;;5.31;100.00;100634.91;5055762;28;20024;-76
2022/02/22 04:13:52;;;;;;;44.83;6.88;;;4.20;99.90;;;5.16;100.00;100635.38;5039546;28;20124;-75
2022/02/22 04:16:21;;;;;;;36.15;6.57;;;4.10;99.90;;;5.08;100.00;100638.09;5055981;28;20036;-77
2022/02/22 04:18:49;;;;;;;38.60;6.78;;;4.10;99.90;;;5.15;100.00;100641.22;5054987;28;20476;-77
2022/02/22 04:21:18;;;;;;;47.42;8.38;;;4.10;99.90;;;5.13;100.00;100640.75;5055612;28;20112;-76
2022/02/22 04:23:44;;;;;;;36.88;6.18;;;4.10;99.90;;;5.08;100.00;100641.69;5054648;28;20040;-77
2022/02/22 04:26:09;;;;;;;37.47;7.63;;;4.10;99.90;;;5.07;100.00;100650.34;5056090;28;20033;-75
2022/02/22 04:28:35;;;;;;;47.30;7.78;;;4.10;99.90;;;5.11;100.00;100643.00;5054696;28;20146;-76
2022/02/22 04:31:01;;;;;;;49.05;8.00;;;4.10;99.90;;;5.11;100.00;100654.06;5054877;28;20037;-77
2022/02/22 04:33:27;;;;;;;36.83;7.88;;;4.00;99.90;;;5.06;100.00;100649.53;5054854;28;20032;-75
2022/02/22 04:35:52;;;;;;;35.80;7.70;;;4.00;99.90;;;4.99;100.00;100651.94;5055437;28;20029;-76
2022/02/22 04:38:18;;;;;;;46.92;6.70;;;3.90;99.90;;;4.86;100.00;100658.41;5036198;28;20040;-78
2022/02/22 04:40:45;;;;;;;31.23;6.90;;;3.90;99.90;;;4.96;100.00;100655.34;5037261;28;20037;-76
2022/02/22 04:43:13;;;;;;;40.60;6.70;;;3.90;99.90;;;4.87;100.00;100665.56;5037562;28;20488;-79
2022/02/22 04:45:41;;;;;;;45.25;8.13;;;3.80;99.90;;;4.90;100.00;100667.69;5055128;28;20029;-75
2022/02/22 04:48:07;;;;;;;43.22;7.18;;;3.80;99.90;;;4.82;100.00;100667.69;5054718;28;20033;-77
2022/02/22 04:50:33;;;;;;;37.00;6.30;;;3.80;99.90;;;4.77;100.00;100660.31;5070048;28;20047;-77
2022/02/22 04:52:59;;;;;;;38.33;6.75;;;3.70;99.90;;;4.76;100.00;100661.44;5075450;28;20107;-79
2022/02/22 04:55:25;;;;;;;47.03;8.30;;;3.70;99.90;;;4.71;100.00;100676.25;5075313;28;20033;-77
2022/02/22 05:00:21;;;;;;;42.00;6.88;;;3.60;99.90;;;4.67;100.00;100674.44;5019809;28;20082;-82
2022/02/22 05:02:47;;;;;;;47.67;7.78;;;3.70;99.90;;;4.64;100.00;100677.84;5020476;28;20030;-83
2022/02/22 05:05:13;;;;;;;40.95;7.60;;;3.60;99.90;;;4.56;100.00;100673.88;5020565;28;20543;-81
2022/02/22 05:07:39;;;;;;;39.63;5.28;;;3.60;99.90;;;4.49;100.00;100678.25;5008757;28;20053;-82
2022/02/22 05:10:05;;;;;;;45.75;6.50;;;3.50;99.90;;;4.42;100.00;100673.16;5038982;28;20025;-82
2022/02/22 05:12:31;;;;;;;39.17;5.13;;;3.40;99.90;;;4.39;100.00;100656.38;5021587;28;20400;-82
2022/02/22 05:14:57;;;;;;;43.65;6.90;;;3.40;99.90;;;4.42;100.00;100672.34;5023566;28;20033;-82
2022/02/22 05:17:23;;;;;;;43.22;6.25;;;3.40;99.90;;;4.47;100.00;100678.56;5040184;28;20037;-81
2022/02/22 05:19:48;;;;;;;37.67;6.30;;;3.40;99.90;;;4.42;100.00;100670.41;5021345;28;20554;-83
2022/02/22 05:22:17;;;;;;;35.78;6.00;;;3.30;99.90;;;4.37;100.00;100676.03;5038462;28;20033;-81
2022/02/22 05:24:43;;;;;;;40.78;6.88;;;3.40;99.90;;;4.40;100.00;100680.94;5037252;28;20025;-81
2022/02/22 05:27:09;;;;;;;32.75;5.35;;;3.30;99.90;;;4.38;100.00;100674.09;5038191;28;20028;-83
2022/02/22 05:29:35;;;;;;;44.97;6.43;;;3.30;99.90;;;4.37;100.00;100675.22;5019313;28;20087;-84
2022/02/22 05:32:01;;;;;;;37.70;5.50;;;3.30;99.90;;;4.31;100.00;100660.72;5038604;28;20018;-81
2022/02/22 05:34:27;;;;;;;41.03;6.22;;;3.30;99.90;;;4.36;100.00;100668.91;5021638;28;20620;-83
2022/02/22 05:36:54;;;;;;;45.05;7.22;;;3.30;99.90;;;4.36;100.00;100681.91;5041716;28;20035;-82
2022/02/22 05:39:20;;;;;;;40.83;5.45;;;3.30;99.90;;;4.36;100.00;100684.66;5056241;28;20153;-83
2022/02/22 05:41:45;;;;;;;37.03;6.00;;;3.30;99.90;;;4.40;100.00;100677.38;5050679;28;20034;-83
2022/02/22 05:44:11;;;;;;;41.38;6.38;;;3.30;99.90;;;4.36;100.00;100696.56;5024988;28;20033;-86
2022/02/22 05:46:40;;;;;;;21.63;5.20;;;3.30;99.90;;;4.44;100.00;100697.72;5042631;28;20025;-83
2022/02/22 05:49:09;;;;;;;41.13;5.82;;;3.40;99.90;;;4.49;100.00;100689.31;5027473;28;20028;-84
2022/02/22 05:51:35;;;;;;;25.15;5.45;;;3.40;99.90;;;4.45;100.00;100697.41;5044293;28;20085;-82
2022/02/22 05:54:00;;;;;;;52.03;7.35;;;3.40;99.90;;;4.44;100.00;100706.84;5061816;28;20063;-83
2022/02/22 05:56:29;;;;;;;38.88;6.65;;;3.40;99.90;;;4.42;100.00;100717.41;5043462;28;20028;-83
2022/02/22 05:58:59;;;;;;;35.15;5.40;;;3.40;99.90;;;4.48;100.00;100707.84;5042964;28;20114;-82
2022/02/22 06:01:25;;;;;;;47.08;6.20;;;3.50;99.90;;;4.55;100.00;100705.47;5060863;28;20032;-82
2022/02/22 06:03:50;;;;;;;41.30;7.25;;;3.50;99.90;;;4.56;100.00;100706.28;5042259;28;20024;-83
2022/02/22 06:06:16;;;;;;;36.92;5.80;;;3.50;99.90;;;4.52;100.00;100717.16;5042016;28;20033;-83
2022/02/22 06:08:42;;;;;;;41.78;6.53;;;3.50;99.90;;;4.47;100.00;100719.22;5043227;28;20036;-82
2022/02/22 06:11:08;;;;;;;42.13;7.50;;;3.40;99.90;;;4.36;100.00;100713.16;5041687;28;20032;-82
2022/02/22 06:13:37;;;;;;;38.58;7.43;;;3.40;99.90;;;4.40;100.00;100713.34;5041102;28;20632;-81
2022/02/22 06:16:03;;;;;;;36.75;6.10;;;3.40;99.90;;;4.41;100.00;100715.78;5060691;28;20033;-83
2022/02/22 06:18:28;;;;;;;30.60;8.38;;;3.40;99.90;;;4.45;100.00;100718.72;5059193;28;20345;-82
2022/02/22 06:20:54;;;;;;;38.92;8.40;;;3.40;99.90;;;4.42;100.00;100728.47;5060387;28;20025;-82
2022/02/22 06:23:20;;;;;;;44.53;7.85;;;3.40;99.90;;;4.38;100.00;100718.34;5058612;28;20098;-82
2022/02/22 06:25:46;;;;;;;38.25;7.82;;;3.40;99.90;;;4.46;100.00;100723.97;5056195;28;20488;-83
2022/02/22 06:28:13;;;;;;;39.97;7.00;;;3.40;99.90;;;4.43;100.00;100730.09;5057173;28;20055;-81
2022/02/22 06:30:45;;;;;;;37.88;6.88;;;3.40;99.90;;;4.41;100.00;100723.25;5058814;28;20025;-82
2022/02/22 06:33:11;;;;;;;45.97;7.18;;;3.40;99.90;;;4.38;100.00;100732.19;5042499;28;20598;-83
2022/02/22 06:35:37;;;;;;;42.30;8.50;;;3.40;99.90;;;4.43;100.00;100729.28;5062271;28;20100;-83
2022/02/22 06:38:03;;;;;;;37.25;7.35;;;3.50;99.90;;;4.49;100.00;100728.84;5042555;28;20060;-81
2022/02/22 06:40:30;;;;;;;68.32;19.35;;;3.50;99.90;;;4.35;100.00;100730.03;5042600;28;20036;-80
2022/02/22 06:42:59;;;;;;;38.45;8.25;;;3.50;99.90;;;4.36;100.00;100731.69;5061191;28;20032;-82
2022/02/22 06:45:28;;;;;;;34.00;6.45;;;3.50;99.90;;;4.34;100.00;100742.22;5045969;28;20208;-82
2022/02/22 06:47:55;;;;;;;44.92;8.38;;;3.50;99.90;;;4.33;100.00;100749.72;5063389;28;20017;-79
2022/02/22 06:50:25;;;;;;;44.10;7.38;;;3.60;99.90;;;4.35;100.00;100746.63;5031898;28;20025;-81
2022/02/22 06:52:54;;;;;;;48.55;7.55;;;3.60;99.90;;;4.43;100.00;100751.41;5026226;28;20029;-83
2022/02/22 06:55:20;;;;;;;52.88;8.18;;;3.70;99.90;;;4.53;100.00;100754.72;5042811;28;20026;-80
2022/02/22 06:58:07;;;;;;;54.92;8.32;;;3.80;99.90;;;4.53;100.00;100765.78;5025531;28;20033;-82
2022/02/22 07:00:48;;;;;;;47.90;7.22;;;3.80;99.90;;;4.63;100.00;100765.53;5041062;28;20476;-78
2022/02/22 07:03:18;;;;;;;39.05;8.25;;;3.90;99.90;;;4.68;100.00;100775.66;5040037;28;20097;-83
2022/02/22 07:05:44;;;;;;;41.92;7.32;;;4.00;99.90;;;4.83;100.00;100778.03;5042875;28;20082;-83
2022/02/22 07:08:10;;;;;;;47.05;8.25;;;4.10;99.90;;;5.00;100.00;100778.13;5027267;28;20382;-83
2022/02/22 07:10:36;;;;;;;46.38;8.60;;;4.20;99.90;;;5.01;100.00;100768.69;5026148;28;20025;-83
2022/02/22 07:13:05;;;;;;;35.55;7.63;;;4.20;99.90;;;4.94;100.00;100778.59;5024695;28;20037;-82
2022/02/22 07:15:34;;;;;;;36.78;6.82;;;4.20;99.90;;;5.00;100.00;100777.31;5043614;28;20030;-82
2022/02/22 07:18:09;;;;;;;29.88;6.95;;;4.20;99.90;;;5.01;100.00;100779.75;5024811;28;20075;-82
2022/02/22 07:20:37;;;;;;;37.58;6.75;;;4.30;99.90;;;5.08;100.00;100782.88;5025577;28;20388;-81
2022/02/22 07:23:04;;;;;;;31.42;7.18;;;4.30;99.90;;;5.09;100.00;100789.25;5043964;28;20067;-83
2022/02/22 07:25:32;;;;;;;46.83;6.88;;;4.30;99.90;;;5.09;100.00;100790.06;5045172;28;20029;-83
2022/02/22 07:28:01;;;;;;;44.22;7.07;;;4.20;99.90;;;5.05;100.00;100780.75;5044208;28;20072;-81
2022/02/22 07:30:30;;;;;;;31.65;6.22;;;4.30;99.90;;;5.15;100.00;100783.25;5043151;28;20026;-82
2022/02/22 07:33:02;;;;;;;44.22;7.38;;;4.40;99.90;;;5.21;100.00;100787.50;5044601;28;20025;-81
2022/02/22 07:35:30;;;;;;;38.60;7.50;;;4.40;99.90;;;5.19;100.00;100787.03;5027202;28;20093;-81
2022/02/22 07:37:57;;;;;;;34.78;7.00;;;4.40;99.90;;;5.24;100.00;100778.56;5026902;28;20033;-83
2022/02/22 07:40:27;;;;;;;40.67;7.97;;;4.40;99.90;;;5.31;100.00;100790.00;5025906;28;20300;-83
2022/02/22 07:42:54;;;;;;;37.08;6.90;;;4.50;99.90;;;5.36;100.00;100789.06;5026396;28;20029;-83
2022/02/22 07:45:21;;;;;;;32.53;6.22;;;4.50;99.90;;;5.32;100.00;100788.06;5021111;28;20033;-82
2022/02/22 07:47:47;;;;;;;29.63;7.13;;;4.50;99.90;;;5.37;100.00;100790.66;5038494;28;20510;-81
2022/02/22 07:50:13;;;;;;;29.15;6.82;;;4.50;99.90;;;5.42;100.00;100792.50;5058880;28;20025;-85
2022/02/22 07:52:41;;;;;;;35.58;5.32;;;4.50;99.90;;;5.39;100.00;100795.91;5053960;28;20052;-84
2022/02/22 07:55:08;;;;;;;42.22;5.70;;;4.60;99.90;;;5.38;100.00;100791.50;5069995;28;20021;-82
2022/02/22 07:57:37;;;;;;;34.88;5.95;;;4.60;99.90;;;5.74;100.00;100805.97;5051383;28;20055;-82
2022/02/22 08:00:08;;;;;;;35.75;6.70;;;4.90;99.90;;;5.83;100.00;100807.63;5050359;28;20063;-82
2022/02/22 08:02:34;;;;;;;33.90;5.93;;;5.00;99.90;;;5.81;100.00;100806.31;5070775;28;20029;-83
2022/02/22 08:05:06;;;;;;;36.95;5.75;;;5.00;99.90;;;5.96;100.00;100816.16;5052328;28;20029;-83
2022/02/22 08:07:38;;;;;;;29.50;6.03;;;5.10;99.90;;;6.06;100.00;100813.06;5036133;28;20055;-84
2022/02/22 08:10:08;;;;;;;32.25;6.20;;;5.20;99.90;;;5.93;100.00;100806.53;5045507;28;20033;-83
2022/02/22 08:12:37;;;;;;;36.63;6.72;;;5.10;99.90;;;6.11;100.00;100819.25;5045215;28;20032;-82
2022/02/22 08:15:06;;;;;;;27.83;7.43;;;5.30;99.90;;;6.43;100.00;100808.84;5047375;28;20665;-82
2022/02/22 08:17:32;;;;;;;37.42;7.15;;;5.50;99.90;;;6.62;100.00;100823.19;5050982;28;20020;-82
2022/02/22 08:19:59;;;;;;;36.47;8.38;;;5.70;99.90;;;6.95;100.00;100826.25;5054997;28;20033;-83
2022/02/22 08:22:25;;;;;;;33.88;7.13;;;5.90;99.90;;;7.10;100.00;100817.41;5055851;28;20025;-83
2022/02/22 08:24:51;;;;;;;36.08;7.32;;;6.00;99.90;;;6.76;100.00;100819.13;5053289;28;20040;-83
2022/02/22 08:27:19;;;;;;;31.13;7.82;;;6.00;99.90;;;6.66;100.00;100808.34;5051407;28;20025;-84
2022/02/22 08:29:45;;;;;;;34.40;8.20;;;5.90;99.90;;;6.60;100.00;100800.50;5073586;28;20032;-83
2022/02/22 08:32:14;;;;;;;28.95;8.43;;;5.80;99.90;;;6.56;100.00;100808.69;5076254;28;20149;-85
2022/02/22 08:34:49;;;;;;;26.65;7.47;;;5.80;99.90;;;6.52;100.00;100796.59;5053773;28;20029;-84
2022/02/22 08:37:16;;;;;;;28.20;8.15;;;5.70;99.90;;;6.58;100.00;100798.06;5068975;28;20025;-83
2022/02/22 08:39:42;;;;;;;37.20;8.52;;;5.80;99.90;;;6.56;100.00;100788.44;5051818;28;20112;-83
2022/02/22 08:42:10;;;;;;;35.22;8.95;;;5.70;99.90;;;6.66;100.00;100777.81;5076850;28;20021;-84
2022/02/22 08:44:36;;;;;;;35.58;6.45;;;5.90;99.90;;;6.69;100.00;100774.38;5073614;28;20025;-83
2022/02/22 08:47:03;;;;;;;29.00;6.75;;;5.90;99.90;;;6.85;100.00;100769.94;5048720;28;20047;-81
2022/02/22 08:49:28;;;;;;;24.98;5.85;;;6.00;99.90;;;6.95;100.00;100774.31;5043772;28;20021;-81
2022/02/22 08:52:07;;;;;;;23.52;5.72;;;6.10;99.90;;;7.23;100.00;100771.94;5046226;28;20036;-82
2022/02/22 08:54:38;;;;;;;26.10;6.55;;;6.30;99.90;;;7.28;100.00;100777.31;5028259;28;20108;-81
2022/02/22 08:57:04;;;;;;;34.78;6.82;;;6.40;99.90;;;7.10;100.00;100773.78;5027733;28;20040;-81
2022/02/22 08:59:33;;;;;;;24.67;5.85;;;6.40;99.90;;;7.27;100.00;100776.50;5027785;28;20037;-82
2022/02/22 09:01:59;;;;;;;24.02;5.32;;;6.50;99.90;;;7.46;100.00;100781.66;5026979;28;20030;-82
2022/02/22 09:04:25;;;;;;;31.77;7.25;;;6.50;99.90;;;7.36;100.00;100768.94;5045451;28;20060;-81
2022/02/22 09:06:51;;;;;;;31.92;7.45;;;6.50;99.90;;;7.18;100.00;100755.47;5042454;28;20486;-82
2022/02/22 09:09:21;;;;;;;23.92;5.80;;;6.50;99.90;;;7.42;100.00;100775.13;5034784;28;20036;-82
2022/02/22 09:11:46;;;;;;;18.58;4.60;;;6.60;99.90;;;7.65;100.00;100767.31;5053618;28;20033;-83
2022/02/22 09:14:21;;;;;;;19.77;5.20;;;6.80;99.90;;;7.62;100.00;100768.00;5030225;28;20067;-83
2022/02/22 09:16:47;;;;;;;26.05;5.00;;;6.90;99.90;;;7.69;100.00;100777.44;5048643;28;20036;-83
2022/02/22 09:19:16;;;;;;;19.92;5.15;;;7.00;99.90;;;7.68;99.24;100773.03;5029853;28;20025;-84
2022/02/22 09:21:42;;;;;;;23.35;4.80;;;7.00;99.90;;;7.74;99.97;100766.13;5046030;28;20029;-83
2022/02/22 09:24:08;;;;;;;34.33;6.20;;;7.00;99.90;;;7.93;99.99;100763.72;5047430;28;20402;-82
2022/02/22 09:26:34;;;;;;;28.70;5.60;;;7.10;99.90;;;7.97;97.63;100747.97;5027218;28;20126;-81
2022/02/22 09:29:03;;;;;;;24.25;4.93;;;7.20;99.90;;;7.86;98.71;100754.28;5045347;28;20160;-81
2022/02/22 09:31:31;;;;;;;26.35;5.45;;;7.20;99.90;;;7.95;97.42;100749.47;5043352;28;20022;-81
2022/02/22 09:33:57;;;;;;;25.58;4.93;;;7.20;99.90;;;8.03;97.91;100751.38;5026652;28;20025;-81
2022/02/22 09:36:23;;;;;;;27.98;5.60;;;7.30;99.90;;;8.07;97.84;100746.75;5041656;28;20504;-81
2022/02/22 09:38:49;;;;;;;31.13;5.45;;;7.30;99.90;;;7.93;97.67;100747.03;5043649;28;20056;-81
2022/02/22 09:41:15;;;;;;;22.45;5.82;;;7.30;99.90;;;7.86;98.24;100748.72;5024074;28;20056;-82
2022/02/22 09:43:41;;;;;;;25.10;5.38;;;7.20;99.90;;;7.71;99.62;100757.63;5025357;28;20033;-81
2022/02/22 09:46:09;;;;;;;21.58;5.32;;;7.10;99.90;;;7.62;99.37;100748.53;5023068;28;20543;-81
2022/02/22 09:48:41;;;;;;;18.77;4.18;;;7.00;99.90;;;7.60;99.44;100737.78;5021727;28;20488;-81
2022/02/22 09:51:07;;;;;;;33.25;6.43;;;6.90;99.90;;;7.56;100.00;100742.38;5057501;28;20089;-81
2022/02/22 09:53:33;;;;;;;20.10;4.82;;;6.90;99.90;;;7.61;100.00;100725.47;5042641;28;20060;-80
2022/02/22 09:56:05;;;;;;;28.17;5.18;;;6.90;99.90;;;7.60;100.00;100736.94;5041038;28;20029;-81
2022/02/22 09:58:32;;;;;;;20.30;4.38;;;6.90;99.90;;;7.57;100.00;100727.31;5042530;28;20520;-80
2022/02/22 10:01:02;;;;;;;27.70;5.78;;;6.90;99.90;;;7.61;100.00;100728.25;5061086;28;20029;-82
2022/02/22 10:03:31;;;;;;;24.48;4.85;;;6.90;99.90;;;7.68;99.83;100720.22;5041779;28;20059;-80
2022/02/22 10:06:03;;;;;;;25.73;5.10;;;6.90;99.90;;;7.59;100.00;100713.91;5059558;28;20080;-81
2022/02/22 10:08:34;;;;;;;18.40;4.35;;;6.90;99.90;;;7.62;99.94;100707.66;5042519;28;20492;-80
2022/02/22 10:11:10;;;;;;;22.88;4.72;;;6.90;99.90;;;7.77;99.39;100693.16;5060635;28;20455;-81
2022/02/22 10:13:37;;;;;;;15.02;4.10;;;7.00;99.90;;;7.96;98.88;100696.28;5060883;28;20067;-81
2022/02/22 10:16:12;;;;;;;18.88;5.45;;;7.20;99.90;;;8.06;96.63;100694.25;5043296;28;20507;-80